sensor_id;sensor_type;location;lat;lon;timestamp;P1;durP1;ratioP1;P2;durP2;ratioP2
8365;SDS011;4220;42.502;24.188;2024-01-06T00:00:08;50.60;;;32.37;;
8365;SDS011;4220;42.502;24.188;2024-01-06T00:02:36;49.03;;;32.73;;
8365;SDS011;4220;42.502;24.188;2024-01-06T00:05:03;51.27;;;32.87;;
8365;SDS011;4220;42.502;24.188;2024-01-06T00:07:30;49.83;;;33.60;;
8365;SDS011;4220;42.502;24.188;2024-01-06T00:09:58;57.43;;;34.43;;
8365;SDS011;4220;42.502;24.188;2024-01-06T00:12:25;57.87;;;37.57;;
8365;SDS011;4220;42.502;24.188;2024-01-06T00:14:52;51.20;;;35.23;;
8365;SDS011;4220;42.502;24.188;2024-01-06T00:17:18;53.27;;;35.53;;
8365;SDS011;4220;42.502;24.188;2024-01-06T00:19:45;54.47;;;35.00;;
8365;SDS011;4220;42.502;24.188;2024-01-06T00:22:16;41.07;;;30.10;;
8365;SDS011;4220;42.502;24.188;2024-01-06T00:24:42;44.93;;;31.50;;
8365;SDS011;4220;42.502;24.188;2024-01-06T00:27:10;46.83;;;30.00;;
8365;SDS011;4220;42.502;24.188;2024-01-06T00:29:38;36.17;;;24.73;;
8365;SDS011;4220;42.502;24.188;2024-01-06T00:32:05;37.57;;;24.50;;
8365;SDS011;4220;42.502;24.188;2024-01-06T00:34:32;42.60;;;27.27;;
8365;SDS011;4220;42.502;24.188;2024-01-06T00:36:59;44.00;;;27.73;;
8365;SDS011;4220;42.502;24.188;2024-01-06T00:39:26;43.80;;;28.17;;
8365;SDS011;4220;42.502;24.188;2024-01-06T00:41:52;46.33;;;29.73;;
8365;SDS011;4220;42.502;24.188;2024-01-06T00:44:20;51.43;;;31.73;;
8365;SDS011;4220;42.502;24.188;2024-01-06T00:46:47;45.90;;;32.70;;
8365;SDS011;4220;42.502;24.188;2024-01-06T00:49:14;43.27;;;30.23;;
8365;SDS011;4220;42.502;24.188;2024-01-06T00:51:41;47.13;;;32.67;;
8365;SDS011;4220;42.502;24.188;2024-01-06T00:54:07;49.47;;;31.23;;
8365;SDS011;4220;42.502;24.188;2024-01-06T00:56:34;40.07;;;27.63;;
8365;SDS011;4220;42.502;24.188;2024-01-06T00:59:01;37.73;;;24.80;;
8365;SDS011;4220;42.502;24.188;2024-01-06T01:01:29;41.83;;;27.40;;
8365;SDS011;4220;42.502;24.188;2024-01-06T01:03:56;48.37;;;31.50;;
8365;SDS011;4220;42.502;24.188;2024-01-06T01:06:22;47.70;;;30.33;;
8365;SDS011;4220;42.502;24.188;2024-01-06T01:08:49;46.83;;;30.87;;
8365;SDS011;4220;42.502;24.188;2024-01-06T01:11:16;40.63;;;29.53;;
8365;SDS011;4220;42.502;24.188;2024-01-06T01:13:43;41.77;;;27.90;;
8365;SDS011;4220;42.502;24.188;2024-01-06T01:16:09;44.53;;;27.67;;
8365;SDS011;4220;42.502;24.188;2024-01-06T01:18:37;45.47;;;29.43;;
8365;SDS011;4220;42.502;24.188;2024-01-06T01:21:04;44.27;;;28.33;;
8365;SDS011;4220;42.502;24.188;2024-01-06T01:23:31;47.07;;;28.33;;
8365;SDS011;4220;42.502;24.188;2024-01-06T01:25:58;42.00;;;28.53;;
8365;SDS011;4220;42.502;24.188;2024-01-06T01:28:25;41.37;;;27.87;;
8365;SDS011;4220;42.502;24.188;2024-01-06T01:30:52;42.43;;;28.57;;
8365;SDS011;4220;42.502;24.188;2024-01-06T01:33:19;46.33;;;29.67;;
8365;SDS011;4220;42.502;24.188;2024-01-06T01:35:47;43.07;;;28.63;;
8365;SDS011;4220;42.502;24.188;2024-01-06T01:38:14;42.93;;;29.50;;
8365;SDS011;4220;42.502;24.188;2024-01-06T01:40:41;44.37;;;28.57;;
8365;SDS011;4220;42.502;24.188;2024-01-06T01:43:15;41.33;;;29.10;;
8365;SDS011;4220;42.502;24.188;2024-01-06T01:45:42;47.17;;;29.77;;
8365;SDS011;4220;42.502;24.188;2024-01-06T01:48:09;46.17;;;29.27;;
8365;SDS011;4220;42.502;24.188;2024-01-06T01:50:36;49.20;;;29.53;;
8365;SDS011;4220;42.502;24.188;2024-01-06T01:53:04;41.37;;;29.13;;
8365;SDS011;4220;42.502;24.188;2024-01-06T01:55:31;45.93;;;28.27;;
8365;SDS011;4220;42.502;24.188;2024-01-06T01:57:58;46.67;;;28.83;;
8365;SDS011;4220;42.502;24.188;2024-01-06T02:00:25;41.70;;;28.13;;
8365;SDS011;4220;42.502;24.188;2024-01-06T02:02:51;41.30;;;27.73;;
8365;SDS011;4220;42.502;24.188;2024-01-06T02:05:18;43.10;;;28.37;;
8365;SDS011;4220;42.502;24.188;2024-01-06T02:07:45;44.30;;;28.40;;
8365;SDS011;4220;42.502;24.188;2024-01-06T02:10:14;43.23;;;28.47;;
8365;SDS011;4220;42.502;24.188;2024-01-06T02:12:41;44.93;;;27.93;;
8365;SDS011;4220;42.502;24.188;2024-01-06T02:15:08;39.53;;;28.10;;
8365;SDS011;4220;42.502;24.188;2024-01-06T02:17:35;42.33;;;27.73;;
8365;SDS011;4220;42.502;24.188;2024-01-06T02:20:01;43.17;;;28.27;;
8365;SDS011;4220;42.502;24.188;2024-01-06T02:22:30;41.37;;;25.80;;
8365;SDS011;4220;42.502;24.188;2024-01-06T02:24:57;31.50;;;23.50;;
8365;SDS011;4220;42.502;24.188;2024-01-06T02:27:23;34.73;;;24.83;;
8365;SDS011;4220;42.502;24.188;2024-01-06T02:29:50;35.63;;;23.87;;
8365;SDS011;4220;42.502;24.188;2024-01-06T02:32:17;36.90;;;23.73;;
8365;SDS011;4220;42.502;24.188;2024-01-06T02:34:44;38.50;;;25.30;;
8365;SDS011;4220;42.502;24.188;2024-01-06T02:37:10;34.10;;;23.80;;
8365;SDS011;4220;42.502;24.188;2024-01-06T02:39:38;36.43;;;24.27;;
8365;SDS011;4220;42.502;24.188;2024-01-06T02:42:05;42.20;;;26.60;;
8365;SDS011;4220;42.502;24.188;2024-01-06T02:44:32;41.17;;;26.87;;
8365;SDS011;4220;42.502;24.188;2024-01-06T02:46:59;42.70;;;28.80;;
8365;SDS011;4220;42.502;24.188;2024-01-06T02:49:26;35.93;;;27.07;;
8365;SDS011;4220;42.502;24.188;2024-01-06T02:51:52;38.20;;;25.33;;
8365;SDS011;4220;42.502;24.188;2024-01-06T02:54:19;37.27;;;20.53;;
8365;SDS011;4220;42.502;24.188;2024-01-06T02:56:47;25.83;;;18.90;;
8365;SDS011;4220;42.502;24.188;2024-01-06T02:59:14;26.40;;;19.23;;
8365;SDS011;4220;42.502;24.188;2024-01-06T03:01:41;30.23;;;19.73;;
8365;SDS011;4220;42.502;24.188;2024-01-06T03:04:07;32.43;;;22.03;;
8365;SDS011;4220;42.502;24.188;2024-01-06T03:06:34;31.20;;;21.30;;
8365;SDS011;4220;42.502;24.188;2024-01-06T03:09:01;29.70;;;19.97;;
8365;SDS011;4220;42.502;24.188;2024-01-06T03:11:28;29.73;;;18.30;;
8365;SDS011;4220;42.502;24.188;2024-01-06T03:13:56;21.20;;;13.07;;
8365;SDS011;4220;42.502;24.188;2024-01-06T03:16:23;14.17;;;9.93;;
8365;SDS011;4220;42.502;24.188;2024-01-06T03:18:50;17.90;;;10.73;;
8365;SDS011;4220;42.502;24.188;2024-01-06T03:21:17;16.47;;;10.10;;
8365;SDS011;4220;42.502;24.188;2024-01-06T03:23:44;17.23;;;10.80;;
8365;SDS011;4220;42.502;24.188;2024-01-06T03:26:11;19.73;;;12.80;;
8365;SDS011;4220;42.502;24.188;2024-01-06T03:28:38;18.23;;;12.83;;
8365;SDS011;4220;42.502;24.188;2024-01-06T03:31:06;20.57;;;13.80;;
8365;SDS011;4220;42.502;24.188;2024-01-06T03:33:33;18.50;;;12.47;;
8365;SDS011;4220;42.502;24.188;2024-01-06T03:36:03;20.23;;;14.20;;
8365;SDS011;4220;42.502;24.188;2024-01-06T03:38:30;30.10;;;20.53;;
8365;SDS011;4220;42.502;24.188;2024-01-06T03:40:57;26.93;;;19.20;;
8365;SDS011;4220;42.502;24.188;2024-01-06T03:43:24;33.50;;;20.30;;
8365;SDS011;4220;42.502;24.188;2024-01-06T03:45:51;28.37;;;19.07;;
8365;SDS011;4220;42.502;24.188;2024-01-06T03:48:19;28.90;;;18.97;;
8365;SDS011;4220;42.502;24.188;2024-01-06T03:50:46;29.00;;;19.80;;
8365;SDS011;4220;42.502;24.188;2024-01-06T03:53:13;30.40;;;19.50;;
8365;SDS011;4220;42.502;24.188;2024-01-06T03:55:39;25.60;;;18.13;;
8365;SDS011;4220;42.502;24.188;2024-01-06T03:58:06;24.70;;;18.53;;
8365;SDS011;4220;42.502;24.188;2024-01-06T04:00:33;33.27;;;20.43;;
8365;SDS011;4220;42.502;24.188;2024-01-06T04:03:00;27.77;;;19.67;;
8365;SDS011;4220;42.502;24.188;2024-01-06T04:05:28;30.10;;;19.17;;
8365;SDS011;4220;42.502;24.188;2024-01-06T04:07:55;25.40;;;17.93;;
8365;SDS011;4220;42.502;24.188;2024-01-06T04:10:22;27.30;;;19.73;;
8365;SDS011;4220;42.502;24.188;2024-01-06T04:12:48;25.67;;;19.97;;
8365;SDS011;4220;42.502;24.188;2024-01-06T04:15:15;23.37;;;16.53;;
8365;SDS011;4220;42.502;24.188;2024-01-06T04:17:42;22.20;;;15.97;;
8365;SDS011;4220;42.502;24.188;2024-01-06T04:20:09;20.67;;;14.37;;
8365;SDS011;4220;42.502;24.188;2024-01-06T04:22:39;22.57;;;14.27;;
8365;SDS011;4220;42.502;24.188;2024-01-06T04:25:05;16.37;;;11.40;;
8365;SDS011;4220;42.502;24.188;2024-01-06T04:27:32;13.57;;;8.63;;
8365;SDS011;4220;42.502;24.188;2024-01-06T04:30:00;10.50;;;7.60;;
8365;SDS011;4220;42.502;24.188;2024-01-06T04:32:27;13.83;;;8.13;;
8365;SDS011;4220;42.502;24.188;2024-01-06T04:34:53;11.03;;;8.67;;
8365;SDS011;4220;42.502;24.188;2024-01-06T04:37:22;11.73;;;8.97;;
8365;SDS011;4220;42.502;24.188;2024-01-06T04:39:50;17.00;;;12.23;;
8365;SDS011;4220;42.502;24.188;2024-01-06T04:42:17;22.83;;;15.63;;
8365;SDS011;4220;42.502;24.188;2024-01-06T04:44:44;56.33;;;33.17;;
8365;SDS011;4220;42.502;24.188;2024-01-06T04:47:11;41.30;;;22.70;;
8365;SDS011;4220;42.502;24.188;2024-01-06T04:49:38;25.80;;;19.33;;
8365;SDS011;4220;42.502;24.188;2024-01-06T04:52:05;29.00;;;19.63;;
8365;SDS011;4220;42.502;24.188;2024-01-06T04:54:32;31.67;;;20.33;;
8365;SDS011;4220;42.502;24.188;2024-01-06T04:57:00;32.37;;;20.90;;
8365;SDS011;4220;42.502;24.188;2024-01-06T04:59:27;35.17;;;20.97;;
8365;SDS011;4220;42.502;24.188;2024-01-06T05:01:54;25.83;;;19.47;;
8365;SDS011;4220;42.502;24.188;2024-01-06T05:04:20;20.90;;;15.20;;
8365;SDS011;4220;42.502;24.188;2024-01-06T05:06:47;17.20;;;11.93;;
8365;SDS011;4220;42.502;24.188;2024-01-06T05:09:14;19.47;;;11.90;;
8365;SDS011;4220;42.502;24.188;2024-01-06T05:11:43;19.37;;;13.20;;
8365;SDS011;4220;42.502;24.188;2024-01-06T05:14:11;16.87;;;13.00;;
8365;SDS011;4220;42.502;24.188;2024-01-06T05:16:38;25.20;;;17.03;;
8365;SDS011;4220;42.502;24.188;2024-01-06T05:19:05;26.60;;;19.73;;
8365;SDS011;4220;42.502;24.188;2024-01-06T05:21:31;35.97;;;25.03;;
8365;SDS011;4220;42.502;24.188;2024-01-06T05:23:58;35.33;;;26.07;;
8365;SDS011;4220;42.502;24.188;2024-01-06T05:26:25;40.60;;;27.60;;
8365;SDS011;4220;42.502;24.188;2024-01-06T05:28:52;44.83;;;31.73;;
8365;SDS011;4220;42.502;24.188;2024-01-06T05:31:20;46.23;;;30.17;;
8365;SDS011;4220;42.502;24.188;2024-01-06T05:33:47;41.73;;;28.27;;
8365;SDS011;4220;42.502;24.188;2024-01-06T05:36:18;38.17;;;26.07;;
8365;SDS011;4220;42.502;24.188;2024-01-06T05:38:45;37.00;;;25.77;;
8365;SDS011;4220;42.502;24.188;2024-01-06T05:41:12;35.87;;;26.07;;
8365;SDS011;4220;42.502;24.188;2024-01-06T05:43:38;32.70;;;23.03;;
8365;SDS011;4220;42.502;24.188;2024-01-06T05:46:06;31.57;;;22.70;;
8365;SDS011;4220;42.502;24.188;2024-01-06T05:48:35;34.20;;;22.13;;
8365;SDS011;4220;42.502;24.188;2024-01-06T05:51:01;35.50;;;24.03;;
8365;SDS011;4220;42.502;24.188;2024-01-06T05:53:31;37.50;;;23.63;;
8365;SDS011;4220;42.502;24.188;2024-01-06T05:55:57;36.40;;;23.23;;
8365;SDS011;4220;42.502;24.188;2024-01-06T05:58:24;32.60;;;20.13;;
8365;SDS011;4220;42.502;24.188;2024-01-06T06:00:51;37.17;;;27.87;;
8365;SDS011;4220;42.502;24.188;2024-01-06T06:03:18;41.80;;;30.57;;
8365;SDS011;4220;42.502;24.188;2024-01-06T06:05:46;47.10;;;32.03;;
8365;SDS011;4220;42.502;24.188;2024-01-06T06:08:12;42.17;;;28.20;;
8365;SDS011;4220;42.502;24.188;2024-01-06T06:10:39;34.77;;;23.13;;
8365;SDS011;4220;42.502;24.188;2024-01-06T06:13:17;31.93;;;22.23;;
8365;SDS011;4220;42.502;24.188;2024-01-06T06:15:44;45.43;;;28.53;;
8365;SDS011;4220;42.502;24.188;2024-01-06T06:18:10;42.10;;;27.87;;
8365;SDS011;4220;42.502;24.188;2024-01-06T06:20:37;44.37;;;30.43;;
8365;SDS011;4220;42.502;24.188;2024-01-06T06:23:05;41.20;;;28.70;;
8365;SDS011;4220;42.502;24.188;2024-01-06T06:25:32;41.33;;;28.70;;
8365;SDS011;4220;42.502;24.188;2024-01-06T06:27:59;43.23;;;27.93;;
8365;SDS011;4220;42.502;24.188;2024-01-06T06:30:25;47.53;;;26.00;;
8365;SDS011;4220;42.502;24.188;2024-01-06T06:32:52;38.80;;;23.73;;
8365;SDS011;4220;42.502;24.188;2024-01-06T06:35:19;27.10;;;20.27;;
8365;SDS011;4220;42.502;24.188;2024-01-06T06:37:46;36.67;;;21.60;;
8365;SDS011;4220;42.502;24.188;2024-01-06T06:40:14;43.13;;;27.27;;
8365;SDS011;4220;42.502;24.188;2024-01-06T06:42:41;50.97;;;32.00;;
8365;SDS011;4220;42.502;24.188;2024-01-06T06:45:08;55.93;;;38.40;;
8365;SDS011;4220;42.502;24.188;2024-01-06T06:47:36;58.57;;;38.37;;
8365;SDS011;4220;42.502;24.188;2024-01-06T06:50:03;57.47;;;37.27;;
8365;SDS011;4220;42.502;24.188;2024-01-06T06:52:31;57.40;;;37.80;;
8365;SDS011;4220;42.502;24.188;2024-01-06T06:54:57;55.00;;;36.57;;
8365;SDS011;4220;42.502;24.188;2024-01-06T06:57:25;56.00;;;37.37;;
8365;SDS011;4220;42.502;24.188;2024-01-06T06:59:52;43.07;;;30.30;;
8365;SDS011;4220;42.502;24.188;2024-01-06T07:02:19;48.93;;;29.27;;
8365;SDS011;4220;42.502;24.188;2024-01-06T07:04:46;40.03;;;25.10;;
8365;SDS011;4220;42.502;24.188;2024-01-06T07:07:12;45.80;;;22.53;;
8365;SDS011;4220;42.502;24.188;2024-01-06T07:09:40;25.40;;;17.17;;
8365;SDS011;4220;42.502;24.188;2024-01-06T07:12:07;25.50;;;16.83;;
8365;SDS011;4220;42.502;24.188;2024-01-06T07:14:35;26.87;;;16.87;;
8365;SDS011;4220;42.502;24.188;2024-01-06T07:17:03;24.27;;;17.57;;
8365;SDS011;4220;42.502;24.188;2024-01-06T07:19:30;25.23;;;18.13;;
8365;SDS011;4220;42.502;24.188;2024-01-06T07:21:58;36.03;;;24.37;;
8365;SDS011;4220;42.502;24.188;2024-01-06T07:24:25;36.93;;;25.60;;
8365;SDS011;4220;42.502;24.188;2024-01-06T07:26:52;41.07;;;27.90;;
8365;SDS011;4220;42.502;24.188;2024-01-06T07:29:19;40.13;;;28.73;;
8365;SDS011;4220;42.502;24.188;2024-01-06T07:31:47;49.57;;;34.23;;
8365;SDS011;4220;42.502;24.188;2024-01-06T07:34:13;73.43;;;48.07;;
8365;SDS011;4220;42.502;24.188;2024-01-06T07:36:41;75.73;;;51.30;;
8365;SDS011;4220;42.502;24.188;2024-01-06T07:39:07;84.93;;;55.20;;
8365;SDS011;4220;42.502;24.188;2024-01-06T07:41:34;68.33;;;46.40;;
8365;SDS011;4220;42.502;24.188;2024-01-06T07:44:01;57.97;;;40.37;;
8365;SDS011;4220;42.502;24.188;2024-01-06T07:46:28;66.17;;;43.17;;
8365;SDS011;4220;42.502;24.188;2024-01-06T07:48:58;63.23;;;43.43;;
8365;SDS011;4220;42.502;24.188;2024-01-06T07:51:25;74.37;;;52.43;;
8365;SDS011;4220;42.502;24.188;2024-01-06T07:53:51;82.13;;;54.23;;
8365;SDS011;4220;42.502;24.188;2024-01-06T07:56:18;95.20;;;61.40;;
8365;SDS011;4220;42.502;24.188;2024-01-06T07:58:45;113.23;;;69.50;;
8365;SDS011;4220;42.502;24.188;2024-01-06T08:01:12;108.57;;;73.67;;
8365;SDS011;4220;42.502;24.188;2024-01-06T08:03:38;114.50;;;79.63;;
8365;SDS011;4220;42.502;24.188;2024-01-06T08:06:07;120.63;;;80.93;;
8365;SDS011;4220;42.502;24.188;2024-01-06T08:08:33;111.57;;;76.40;;
8365;SDS011;4220;42.502;24.188;2024-01-06T08:11:00;115.10;;;77.47;;
8365;SDS011;4220;42.502;24.188;2024-01-06T08:13:27;101.37;;;72.90;;
8365;SDS011;4220;42.502;24.188;2024-01-06T08:15:54;103.87;;;74.83;;
8365;SDS011;4220;42.502;24.188;2024-01-06T08:18:21;113.93;;;77.33;;
8365;SDS011;4220;42.502;24.188;2024-01-06T08:20:48;124.03;;;83.47;;
8365;SDS011;4220;42.502;24.188;2024-01-06T08:23:16;114.60;;;85.03;;
8365;SDS011;4220;42.502;24.188;2024-01-06T08:25:44;127.50;;;85.60;;
8365;SDS011;4220;42.502;24.188;2024-01-06T08:28:11;107.00;;;74.23;;
8365;SDS011;4220;42.502;24.188;2024-01-06T08:30:39;109.73;;;74.17;;
8365;SDS011;4220;42.502;24.188;2024-01-06T08:33:06;115.27;;;78.90;;
8365;SDS011;4220;42.502;24.188;2024-01-06T08:35:33;120.47;;;84.00;;
8365;SDS011;4220;42.502;24.188;2024-01-06T08:38:05;129.93;;;89.90;;
8365;SDS011;4220;42.502;24.188;2024-01-06T08:40:33;153.90;;;97.17;;
8365;SDS011;4220;42.502;24.188;2024-01-06T08:43:00;146.20;;;97.13;;
8365;SDS011;4220;42.502;24.188;2024-01-06T08:45:27;139.50;;;94.77;;
8365;SDS011;4220;42.502;24.188;2024-01-06T08:47:54;275.37;;;182.20;;
8365;SDS011;4220;42.502;24.188;2024-01-06T08:50:20;328.43;;;216.00;;
8365;SDS011;4220;42.502;24.188;2024-01-06T08:52:47;335.23;;;211.50;;
8365;SDS011;4220;42.502;24.188;2024-01-06T08:55:14;270.27;;;180.10;;
8365;SDS011;4220;42.502;24.188;2024-01-06T08:57:42;506.07;;;367.23;;
8365;SDS011;4220;42.502;24.188;2024-01-06T09:00:10;240.70;;;151.53;;
8365;SDS011;4220;42.502;24.188;2024-01-06T09:02:37;340.33;;;220.23;;
8365;SDS011;4220;42.502;24.188;2024-01-06T09:05:04;253.17;;;161.40;;
8365;SDS011;4220;42.502;24.188;2024-01-06T09:07:32;205.37;;;133.23;;
8365;SDS011;4220;42.502;24.188;2024-01-06T09:09:58;405.23;;;278.50;;
8365;SDS011;4220;42.502;24.188;2024-01-06T09:12:25;268.10;;;177.27;;
8365;SDS011;4220;42.502;24.188;2024-01-06T09:14:53;202.53;;;132.00;;
8365;SDS011;4220;42.502;24.188;2024-01-06T09:17:20;194.83;;;127.10;;
8365;SDS011;4220;42.502;24.188;2024-01-06T09:19:47;198.30;;;132.07;;
8365;SDS011;4220;42.502;24.188;2024-01-06T09:22:14;244.03;;;155.17;;
8365;SDS011;4220;42.502;24.188;2024-01-06T09:24:41;230.83;;;148.30;;
8365;SDS011;4220;42.502;24.188;2024-01-06T09:27:08;224.57;;;145.50;;
8365;SDS011;4220;42.502;24.188;2024-01-06T09:29:34;234.93;;;148.87;;
8365;SDS011;4220;42.502;24.188;2024-01-06T09:32:03;236.80;;;153.63;;
8365;SDS011;4220;42.502;24.188;2024-01-06T09:34:30;192.57;;;130.90;;
8365;SDS011;4220;42.502;24.188;2024-01-06T09:36:57;404.67;;;302.00;;
8365;SDS011;4220;42.502;24.188;2024-01-06T09:39:23;325.17;;;220.30;;
8365;SDS011;4220;42.502;24.188;2024-01-06T09:41:50;217.43;;;150.20;;
8365;SDS011;4220;42.502;24.188;2024-01-06T09:44:17;188.20;;;132.70;;
8365;SDS011;4220;42.502;24.188;2024-01-06T09:46:44;173.27;;;120.23;;
8365;SDS011;4220;42.502;24.188;2024-01-06T09:49:13;166.80;;;118.77;;
8365;SDS011;4220;42.502;24.188;2024-01-06T09:51:40;236.27;;;159.77;;
8365;SDS011;4220;42.502;24.188;2024-01-06T09:54:09;223.07;;;150.30;;
8365;SDS011;4220;42.502;24.188;2024-01-06T09:56:38;199.23;;;136.90;;
8365;SDS011;4220;42.502;24.188;2024-01-06T09:59:06;191.10;;;132.87;;
8365;SDS011;4220;42.502;24.188;2024-01-06T10:01:32;191.33;;;130.50;;
8365;SDS011;4220;42.502;24.188;2024-01-06T10:03:59;333.30;;;242.90;;
8365;SDS011;4220;42.502;24.188;2024-01-06T10:06:27;396.93;;;298.17;;
8365;SDS011;4220;42.502;24.188;2024-01-06T10:08:54;202.60;;;140.63;;
8365;SDS011;4220;42.502;24.188;2024-01-06T10:11:22;186.23;;;131.03;;
8365;SDS011;4220;42.502;24.188;2024-01-06T10:13:49;204.93;;;144.93;;
8365;SDS011;4220;42.502;24.188;2024-01-06T10:16:16;222.40;;;164.80;;
8365;SDS011;4220;42.502;24.188;2024-01-06T10:18:43;157.48;;;113.43;;
8365;SDS011;4220;42.502;24.188;2024-01-06T10:21:10;137.97;;;99.53;;
8365;SDS011;4220;42.502;24.188;2024-01-06T10:23:40;125.85;;;84.53;;
8365;SDS011;4220;42.502;24.188;2024-01-06T10:26:08;96.38;;;69.97;;
8365;SDS011;4220;42.502;24.188;2024-01-06T10:28:38;94.00;;;67.30;;
8365;SDS011;4220;42.502;24.188;2024-01-06T10:31:07;93.77;;;65.53;;
8365;SDS011;4220;42.502;24.188;2024-01-06T10:33:34;77.65;;;59.03;;
8365;SDS011;4220;42.502;24.188;2024-01-06T10:36:02;75.65;;;55.97;;
8365;SDS011;4220;42.502;24.188;2024-01-06T10:38:30;78.10;;;56.87;;
8365;SDS011;4220;42.502;24.188;2024-01-06T10:40:58;85.20;;;58.40;;
8365;SDS011;4220;42.502;24.188;2024-01-06T10:43:28;79.20;;;56.00;;
8365;SDS011;4220;42.502;24.188;2024-01-06T10:45:56;74.63;;;56.05;;
8365;SDS011;4220;42.502;24.188;2024-01-06T10:48:24;75.78;;;56.42;;
8365;SDS011;4220;42.502;24.188;2024-01-06T10:50:52;81.22;;;57.55;;
8365;SDS011;4220;42.502;24.188;2024-01-06T10:53:21;78.15;;;53.75;;
8365;SDS011;4220;42.502;24.188;2024-01-06T10:55:49;63.90;;;45.88;;
8365;SDS011;4220;42.502;24.188;2024-01-06T10:58:18;58.95;;;43.22;;
8365;SDS011;4220;42.502;24.188;2024-01-06T11:00:45;49.22;;;37.70;;
8365;SDS011;4220;42.502;24.188;2024-01-06T11:03:13;49.38;;;36.50;;
8365;SDS011;4220;42.502;24.188;2024-01-06T11:05:40;40.92;;;30.98;;
8365;SDS011;4220;42.502;24.188;2024-01-06T11:08:08;47.78;;;37.13;;
8365;SDS011;4220;42.502;24.188;2024-01-06T11:10:36;60.70;;;41.08;;
8365;SDS011;4220;42.502;24.188;2024-01-06T11:13:10;55.53;;;41.80;;
8365;SDS011;4220;42.502;24.188;2024-01-06T11:15:40;57.28;;;41.63;;
8365;SDS011;4220;42.502;24.188;2024-01-06T11:18:08;58.55;;;38.60;;
8365;SDS011;4220;42.502;24.188;2024-01-06T11:20:35;51.33;;;36.88;;
8365;SDS011;4220;42.502;24.188;2024-01-06T11:23:17;46.30;;;34.95;;
8365;SDS011;4220;42.502;24.188;2024-01-06T11:25:46;46.67;;;35.85;;
8365;SDS011;4220;42.502;24.188;2024-01-06T11:28:13;60.42;;;40.38;;
8365;SDS011;4220;42.502;24.188;2024-01-06T11:30:41;57.67;;;42.88;;
8365;SDS011;4220;42.502;24.188;2024-01-06T11:33:08;52.03;;;40.90;;
8365;SDS011;4220;42.502;24.188;2024-01-06T11:35:36;52.33;;;38.47;;
8365;SDS011;4220;42.502;24.188;2024-01-06T11:38:06;53.70;;;38.22;;
8365;SDS011;4220;42.502;24.188;2024-01-06T11:40:33;57.40;;;40.97;;
8365;SDS011;4220;42.502;24.188;2024-01-06T11:43:02;153.23;;;91.47;;
8365;SDS011;4220;42.502;24.188;2024-01-06T11:45:30;131.52;;;87.78;;
8365;SDS011;4220;42.502;24.188;2024-01-06T11:48:00;65.85;;;46.03;;
8365;SDS011;4220;42.502;24.188;2024-01-06T11:50:28;50.42;;;34.78;;
8365;SDS011;4220;42.502;24.188;2024-01-06T11:52:55;48.05;;;32.67;;
8365;SDS011;4220;42.502;24.188;2024-01-06T11:55:22;54.30;;;43.78;;
8365;SDS011;4220;42.502;24.188;2024-01-06T11:57:53;50.53;;;40.88;;
8365;SDS011;4220;42.502;24.188;2024-01-06T12:00:20;48.72;;;36.53;;
8365;SDS011;4220;42.502;24.188;2024-01-06T12:02:47;49.28;;;33.00;;
8365;SDS011;4220;42.502;24.188;2024-01-06T12:05:16;50.72;;;34.03;;
8365;SDS011;4220;42.502;24.188;2024-01-06T12:07:52;47.80;;;35.25;;
8365;SDS011;4220;42.502;24.188;2024-01-06T12:10:20;40.13;;;28.70;;
8365;SDS011;4220;42.502;24.188;2024-01-06T12:12:54;34.55;;;24.77;;
8365;SDS011;4220;42.502;24.188;2024-01-06T12:15:23;23.48;;;17.55;;
8365;SDS011;4220;42.502;24.188;2024-01-06T12:17:50;27.77;;;20.13;;
8365;SDS011;4220;42.502;24.188;2024-01-06T12:20:18;26.80;;;20.85;;
8365;SDS011;4220;42.502;24.188;2024-01-06T12:22:45;25.83;;;19.60;;
8365;SDS011;4220;42.502;24.188;2024-01-06T12:25:14;25.58;;;18.77;;
8365;SDS011;4220;42.502;24.188;2024-01-06T12:27:42;136.63;;;92.82;;
8365;SDS011;4220;42.502;24.188;2024-01-06T12:30:12;367.63;;;266.70;;
8365;SDS011;4220;42.502;24.188;2024-01-06T12:32:42;84.65;;;52.67;;
8365;SDS011;4220;42.502;24.188;2024-01-06T12:35:09;28.92;;;20.05;;
8365;SDS011;4220;42.502;24.188;2024-01-06T12:37:38;23.65;;;17.13;;
8365;SDS011;4220;42.502;24.188;2024-01-06T12:40:05;76.72;;;45.88;;
8365;SDS011;4220;42.502;24.188;2024-01-06T12:42:35;44.10;;;28.85;;
8365;SDS011;4220;42.502;24.188;2024-01-06T12:45:03;54.20;;;32.55;;
8365;SDS011;4220;42.502;24.188;2024-01-06T12:47:30;76.65;;;47.50;;
8365;SDS011;4220;42.502;24.188;2024-01-06T12:49:57;40.15;;;26.50;;
8365;SDS011;4220;42.502;24.188;2024-01-06T12:52:24;22.17;;;17.52;;
8365;SDS011;4220;42.502;24.188;2024-01-06T12:54:52;16.98;;;12.63;;
8365;SDS011;4220;42.502;24.188;2024-01-06T12:57:19;35.65;;;25.58;;
8365;SDS011;4220;42.502;24.188;2024-01-06T12:59:46;25.83;;;18.52;;
8365;SDS011;4220;42.502;24.188;2024-01-06T13:02:13;17.40;;;11.65;;
8365;SDS011;4220;42.502;24.188;2024-01-06T13:04:40;10.77;;;7.53;;
8365;SDS011;4220;42.502;24.188;2024-01-06T13:07:06;23.17;;;14.52;;
8365;SDS011;4220;42.502;24.188;2024-01-06T13:09:33;49.08;;;24.45;;
8365;SDS011;4220;42.502;24.188;2024-01-06T13:12:01;292.20;;;186.50;;
8365;SDS011;4220;42.502;24.188;2024-01-06T13:14:29;166.18;;;106.00;;
8365;SDS011;4220;42.502;24.188;2024-01-06T13:16:56;36.10;;;22.90;;
8365;SDS011;4220;42.502;24.188;2024-01-06T13:19:23;15.50;;;11.25;;
8365;SDS011;4220;42.502;24.188;2024-01-06T13:21:52;17.90;;;12.93;;
8365;SDS011;4220;42.502;24.188;2024-01-06T13:24:19;13.38;;;10.45;;
8365;SDS011;4220;42.502;24.188;2024-01-06T13:26:45;10.45;;;7.15;;
8365;SDS011;4220;42.502;24.188;2024-01-06T13:29:14;15.85;;;9.13;;
8365;SDS011;4220;42.502;24.188;2024-01-06T13:31:40;15.77;;;12.00;;
8365;SDS011;4220;42.502;24.188;2024-01-06T13:34:07;14.77;;;8.73;;
8365;SDS011;4220;42.502;24.188;2024-01-06T13:36:34;11.90;;;9.20;;
8365;SDS011;4220;42.502;24.188;2024-01-06T13:39:01;11.10;;;9.43;;
8365;SDS011;4220;42.502;24.188;2024-01-06T13:41:29;14.15;;;10.32;;
8365;SDS011;4220;42.502;24.188;2024-01-06T13:43:56;17.73;;;10.57;;
8365;SDS011;4220;42.502;24.188;2024-01-06T13:46:24;19.80;;;11.50;;
8365;SDS011;4220;42.502;24.188;2024-01-06T13:48:51;16.98;;;11.85;;
8365;SDS011;4220;42.502;24.188;2024-01-06T13:51:18;20.33;;;13.98;;
8365;SDS011;4220;42.502;24.188;2024-01-06T13:53:44;19.20;;;11.00;;
8365;SDS011;4220;42.502;24.188;2024-01-06T13:56:12;18.42;;;10.63;;
8365;SDS011;4220;42.502;24.188;2024-01-06T13:58:38;14.00;;;10.10;;
8365;SDS011;4220;42.502;24.188;2024-01-06T14:01:05;22.05;;;12.25;;
8365;SDS011;4220;42.502;24.188;2024-01-06T14:03:36;10.20;;;7.57;;
8365;SDS011;4220;42.502;24.188;2024-01-06T14:06:03;18.20;;;11.18;;
8365;SDS011;4220;42.502;24.188;2024-01-06T14:08:31;12.38;;;8.38;;
8365;SDS011;4220;42.502;24.188;2024-01-06T14:10:58;13.18;;;9.90;;
8365;SDS011;4220;42.502;24.188;2024-01-06T14:13:25;12.07;;;9.05;;
8365;SDS011;4220;42.502;24.188;2024-01-06T14:15:52;16.10;;;8.88;;
8365;SDS011;4220;42.502;24.188;2024-01-06T14:18:19;10.80;;;9.40;;
8365;SDS011;4220;42.502;24.188;2024-01-06T14:20:47;13.45;;;9.68;;
8365;SDS011;4220;42.502;24.188;2024-01-06T14:23:13;14.10;;;10.40;;
8365;SDS011;4220;42.502;24.188;2024-01-06T14:25:41;40.53;;;23.55;;
8365;SDS011;4220;42.502;24.188;2024-01-06T14:28:07;31.20;;;19.88;;
8365;SDS011;4220;42.502;24.188;2024-01-06T14:30:34;20.73;;;13.38;;